Terminal Aerodrome Forecast
Issued by NWS Bismarck, ND

Home | Current Version | Previous Version | Graphics & Text | Print | Product List | Glossary On
Versions: 1 2 3 4 5 6 7 8 9 10 11 12 13 14 15 16 17 18 19
501
FTUS43 KBIS 231559 AAB
TAFBIS
TAF AMD
KBIS 231559Z 2316/2412 07015G22KT P6SM FEW200
     FM231800 03012KT P6SM SCT140
     FM240000 02015G23KT P6SM VCSH OVC060
     FM241100 36009KT P6SM VCSH BKN110=

USA.gov is the U.S. government's official web portal to all federal, state and local government web resources and services.